createdAt,value
2023-09-10T00:02:19.310Z,21.70
2023-09-10T00:07:21.464Z,21.60
2023-09-10T00:12:25.523Z,21.60
2023-09-10T00:17:27.775Z,21.50
2023-09-10T00:22:29.998Z,21.40
2023-09-10T00:27:32.286Z,21.50
2023-09-10T00:32:34.486Z,21.50
2023-09-10T00:37:36.863Z,21.60
2023-09-10T00:42:39.568Z,21.50
2023-09-10T00:47:46.768Z,21.50
2023-09-10T00:52:53.875Z,21.60
2023-09-10T00:57:56.719Z,21.60
2023-09-10T01:03:00.402Z,21.70
2023-09-10T01:08:04.531Z,21.60
2023-09-10T01:13:20.493Z,21.60
2023-09-10T01:18:44.245Z,21.60
2023-09-10T01:24:09.908Z,21.60
2023-09-10T01:29:16.040Z,21.50
2023-09-10T01:34:23.455Z,21.40
2023-09-10T01:39:37.349Z,21.40
2023-09-10T01:44:41.444Z,21.50
2023-09-10T01:49:43.694Z,21.50
2023-09-10T01:54:46.018Z,21.50
2023-09-10T01:59:48.104Z,21.50
2023-09-10T02:04:50.263Z,21.50
2023-09-10T02:09:52.864Z,21.40
2023-09-10T02:14:56.167Z,21.40
2023-09-10T02:19:58.421Z,21.20
2023-09-10T02:25:01.977Z,21.20
2023-09-10T02:30:05.038Z,21.20
2023-09-10T02:35:07.528Z,21.30
2023-09-10T02:40:10.411Z,21.20
2023-09-10T02:45:13.403Z,21.30
2023-09-10T02:50:15.969Z,21.40
2023-09-10T02:55:18.147Z,21.30
2023-09-10T03:00:23.334Z,21.30
2023-09-10T03:05:25.930Z,21.30
2023-09-10T03:10:28.170Z,21.30
2023-09-10T03:15:30.906Z,21.30
2023-09-10T03:20:33.349Z,21.30
2023-09-10T03:25:40.240Z,21.30
2023-09-10T03:30:42.580Z,21.30
2023-09-10T03:35:45.249Z,21.30
2023-09-10T03:40:47.450Z,21.30
2023-09-10T03:45:50.458Z,21.30
2023-09-10T03:50:52.732Z,21.30
2023-09-10T03:55:54.904Z,21.20
2023-09-10T04:00:57.329Z,21.10
2023-09-10T04:05:59.710Z,21.10
2023-09-10T04:11:01.854Z,21.20
2023-09-10T04:16:04.165Z,21.10
2023-09-10T04:21:06.378Z,21.10
2023-09-10T04:26:08.750Z,21.10
2023-09-10T04:31:14.849Z,21.20
2023-09-10T04:36:17.514Z,21.10
2023-09-10T04:41:20.421Z,21.10
2023-09-10T04:46:22.851Z,21.10
2023-09-10T04:51:25.368Z,21.10
2023-09-10T04:56:27.970Z,21.10
2023-09-10T05:01:30.363Z,21.00
2023-09-10T05:06:33.095Z,21.00
2023-09-10T05:11:35.650Z,20.90
2023-09-10T05:16:38.414Z,20.80
2023-09-10T05:21:40.684Z,20.90
2023-09-10T05:26:42.945Z,20.80
2023-09-10T05:31:45.420Z,20.80
2023-09-10T05:36:49.452Z,20.80
2023-09-10T05:41:52.013Z,20.70
2023-09-10T05:46:54.586Z,20.70
2023-09-10T05:51:56.838Z,20.80
2023-09-10T05:56:59.180Z,20.70
2023-09-10T06:02:01.937Z,20.60
2023-09-10T06:07:05.118Z,20.50
2023-09-10T06:12:08.391Z,20.60
2023-09-10T06:17:10.900Z,20.60
2023-09-10T06:22:13.057Z,20.60
2023-09-10T06:27:15.543Z,20.60
2023-09-10T06:32:18.280Z,20.60
2023-09-10T06:37:20.813Z,20.60
2023-09-10T06:42:23.089Z,20.60
2023-09-10T06:47:43.054Z,20.70
2023-09-10T06:52:45.217Z,20.80
2023-09-10T06:57:47.402Z,20.80
2023-09-10T07:02:49.537Z,20.90
2023-09-10T07:07:54.604Z,20.90
2023-09-10T07:12:56.859Z,20.90
2023-09-10T07:17:59.012Z,20.90
2023-09-10T07:23:01.190Z,21.00
2023-09-10T07:28:03.689Z,21.10
2023-09-10T07:33:05.848Z,21.20
2023-09-10T07:38:08.007Z,21.20
2023-09-10T07:43:10.162Z,21.20
2023-09-10T07:48:13.340Z,21.20
2023-09-10T07:53:15.638Z,21.30
2023-09-10T07:58:18.463Z,21.30
2023-09-10T08:03:20.674Z,21.40
2023-09-10T08:08:22.849Z,21.40
2023-09-10T08:13:25.046Z,21.40
2023-09-10T08:18:27.258Z,21.40
2023-09-10T08:23:29.384Z,21.40
2023-09-10T08:28:31.809Z,21.40
2023-09-10T08:33:33.965Z,21.50
2023-09-10T08:38:36.196Z,21.40
2023-09-10T08:43:59.491Z,21.50
2023-09-10T08:49:02.555Z,21.70
2023-09-10T08:54:04.987Z,21.90
2023-09-10T08:59:08.752Z,21.90
2023-09-10T09:04:13.325Z,21.90
2023-09-10T09:09:17.586Z,22.00
2023-09-10T09:14:22.391Z,21.90
2023-09-10T09:19:29.998Z,21.80
2023-09-10T09:24:32.587Z,21.80
2023-09-10T09:29:35.083Z,22.00
2023-09-10T09:34:37.258Z,22.30
2023-09-10T09:39:39.398Z,22.60
2023-09-10T09:44:42.730Z,22.70
2023-09-10T09:49:51.611Z,22.60
2023-09-10T09:54:53.786Z,22.70
2023-09-10T09:59:57.573Z,22.80
2023-09-10T10:05:01.040Z,22.90
2023-09-10T10:10:07.103Z,23.00
2023-09-10T10:15:10.136Z,23.10
2023-09-10T10:20:14.290Z,23.00
2023-09-10T10:25:16.568Z,23.10
2023-09-10T10:30:18.787Z,23.20
2023-09-10T10:35:21.533Z,23.40
2023-09-10T10:40:31.650Z,23.40
2023-09-10T10:45:35.142Z,23.40
2023-09-10T10:50:39.531Z,23.50
2023-09-10T10:55:42.747Z,23.50
2023-09-10T11:00:49.182Z,23.40
2023-09-10T11:05:58.946Z,23.40
2023-09-10T11:11:02.873Z,23.50
2023-09-10T11:16:05.068Z,23.70
2023-09-10T11:21:08.470Z,24.00
2023-09-10T11:26:16.514Z,24.60
2023-09-10T11:31:39.968Z,24.90
2023-09-10T11:36:50.175Z,25.30
2023-09-10T11:41:54.931Z,25.60
2023-09-10T11:46:57.350Z,26.00
2023-09-10T11:51:59.690Z,26.10
2023-09-10T11:57:02.353Z,26.30
2023-09-10T12:02:04.728Z,26.50
2023-09-10T12:07:07.321Z,26.70
2023-09-10T12:12:15.458Z,26.90
2023-09-10T12:17:19.436Z,26.70
2023-09-10T12:22:21.663Z,26.70
2023-09-10T12:27:23.832Z,26.60
2023-09-10T12:32:26.105Z,26.70
2023-09-10T12:37:28.478Z,26.60
2023-09-10T12:42:30.668Z,26.60
2023-09-10T12:47:33.033Z,26.60
2023-09-10T12:52:36.747Z,26.70
2023-09-10T12:57:38.842Z,26.80
2023-09-10T13:02:43.542Z,26.80
2023-09-10T13:07:46.806Z,27.10
2023-09-10T13:12:49.148Z,27.30
2023-09-10T13:17:51.351Z,27.40
2023-09-10T13:22:53.713Z,27.40
2023-09-10T13:27:55.926Z,27.20
2023-09-10T13:32:58.079Z,27.60
2023-09-10T13:38:00.452Z,26.90
2023-09-10T13:43:02.616Z,26.80
2023-09-10T13:48:05.174Z,26.50
2023-09-10T13:53:07.483Z,26.40
2023-09-10T13:58:09.632Z,26.40
2023-09-10T14:03:11.884Z,26.50
2023-09-10T14:08:14.022Z,26.60
2023-09-10T14:13:16.150Z,26.70
2023-09-10T14:18:18.303Z,26.60
2023-09-10T14:23:20.551Z,27.50
2023-09-10T14:28:22.733Z,27.90
2023-09-10T14:33:24.876Z,27.20
2023-09-10T14:38:27.260Z,27.10
2023-09-10T14:43:29.469Z,27.30
2023-09-10T14:48:31.669Z,27.50
2023-09-10T14:53:33.785Z,27.60
2023-09-10T14:58:35.973Z,27.70
2023-09-10T15:03:38.241Z,27.90
2023-09-10T15:08:40.581Z,27.80
2023-09-10T15:13:43.046Z,28.10
2023-09-10T15:18:46.386Z,27.90
2023-09-10T15:23:48.621Z,27.80
2023-09-10T15:28:51.277Z,28.10
2023-09-10T15:33:53.674Z,28.60
2023-09-10T15:38:55.797Z,29.00
2023-09-10T15:43:58.294Z,28.90
2023-09-10T15:49:01.356Z,28.40
2023-09-10T15:54:04.283Z,28.20
2023-09-10T15:59:06.580Z,28.10
2023-09-10T16:04:08.806Z,28.00
2023-09-10T16:09:13.136Z,28.00
2023-09-10T16:14:15.410Z,27.70
2023-09-10T16:19:17.564Z,27.80
2023-09-10T16:24:19.633Z,28.10
2023-09-10T16:29:21.868Z,28.10
2023-09-10T16:34:24.036Z,28.00
2023-09-10T16:39:26.228Z,27.50
2023-09-10T16:44:30.264Z,27.30
2023-09-10T16:49:32.539Z,27.10
2023-09-10T16:54:34.822Z,26.80
2023-09-10T16:59:37.042Z,26.90
2023-09-10T17:04:39.240Z,26.90
2023-09-10T17:09:41.399Z,26.70
2023-09-10T17:14:43.632Z,26.60
2023-09-10T17:19:45.780Z,26.20
2023-09-10T17:24:47.931Z,26.00
2023-09-10T17:29:51.217Z,25.70
2023-09-10T17:34:53.403Z,25.40
2023-09-10T17:39:55.734Z,25.30
2023-09-10T17:44:58.806Z,25.30
2023-09-10T17:50:07.003Z,25.20
2023-09-10T17:55:09.946Z,25.00
2023-09-10T18:00:12.208Z,24.70
2023-09-10T18:05:14.328Z,24.60
2023-09-10T18:10:16.439Z,24.60
2023-09-10T18:15:18.581Z,24.70
2023-09-10T18:20:20.760Z,24.50
2023-09-10T18:25:22.847Z,24.30
2023-09-10T18:30:29.425Z,24.00
2023-09-10T18:35:32.063Z,23.80
2023-09-10T18:40:35.987Z,23.50
2023-09-10T18:45:39.047Z,23.40
2023-09-10T18:50:44.345Z,23.20
2023-09-10T18:55:46.415Z,23.00
2023-09-10T19:00:48.545Z,22.90
2023-09-10T19:05:52.271Z,22.80
2023-09-10T19:10:58.232Z,22.60
2023-09-10T19:16:02.854Z,22.60
2023-09-10T19:21:05.197Z,22.50
2023-09-10T19:26:07.333Z,22.50
2023-09-10T19:31:12.827Z,22.50
2023-09-10T19:36:17.982Z,22.50
2023-09-10T19:41:20.198Z,22.50
2023-09-10T19:46:22.513Z,22.50
2023-09-10T19:51:25.179Z,22.50
2023-09-10T19:56:28.684Z,22.50
2023-09-10T20:01:31.581Z,22.50
2023-09-10T20:06:37.681Z,22.50
2023-09-10T20:11:40.254Z,22.40
2023-09-10T20:16:42.410Z,22.20
2023-09-10T20:21:46.865Z,22.10
2023-09-10T20:26:49.040Z,22.00
2023-09-10T20:31:51.370Z,21.90
2023-09-10T20:36:53.526Z,21.90
2023-09-10T20:41:57.014Z,21.90
2023-09-10T20:46:59.142Z,21.80
2023-09-10T20:52:01.326Z,21.80
2023-09-10T20:57:04.652Z,21.70
2023-09-10T21:02:06.889Z,21.60
2023-09-10T21:07:09.656Z,21.60
2023-09-10T21:12:11.945Z,21.40
2023-09-10T21:17:18.045Z,21.20
2023-09-10T21:22:20.938Z,21.20
2023-09-10T21:27:23.000Z,21.10
2023-09-10T21:32:25.167Z,21.00
2023-09-10T21:37:27.318Z,21.00
2023-09-10T21:42:29.407Z,20.80
2023-09-10T21:47:31.627Z,20.80
2023-09-10T21:52:33.745Z,20.90
2023-09-10T21:57:36.161Z,20.90
2023-09-10T22:02:38.344Z,20.80
2023-09-10T22:07:41.209Z,20.80
2023-09-10T22:12:43.321Z,20.80
2023-09-10T22:17:45.493Z,20.90
2023-09-10T22:22:47.605Z,20.80
2023-09-10T22:27:49.750Z,20.80
2023-09-10T22:32:51.871Z,20.70
2023-09-10T22:37:54.288Z,20.70
2023-09-10T22:42:56.365Z,20.60
2023-09-10T22:47:59.867Z,20.60
2023-09-10T22:53:02.136Z,20.60
2023-09-10T22:58:04.496Z,20.60
2023-09-10T23:03:07.174Z,20.50
2023-09-10T23:08:09.536Z,20.50
2023-09-10T23:13:11.602Z,20.50
2023-09-10T23:18:13.840Z,20.50
2023-09-10T23:23:16.161Z,20.40
2023-09-10T23:28:18.487Z,20.40
2023-09-10T23:33:20.613Z,20.20
2023-09-10T23:38:24.838Z,20.00
2023-09-10T23:43:27.301Z,20.00
2023-09-10T23:48:29.372Z,19.90
2023-09-10T23:53:31.572Z,19.90
2023-09-10T23:58:35.001Z,19.90
